Wilson Clyde — 8PRV — position and weather

sailwx.info

Track history (hours):
 
Tides and Currents Weather Stations Pressure Air Temp Water Temp Dewpoint Dewpoint Depression Visibility Wind Speed Wind Dir Waves Ship Positions

Wilson Clyde

Last reported at 2016-May-05 07:20 UTC. Time now 2016-May-05 12:19 UTC.
Position N 51°47' E 003°20'.

Length 100 m; draft 3.8 m.

Type: Cargo ship. MMSI: 314187000.

Date/timePositionNaut miles runAvg speedWind from/ knotsBaromVisibWave heightAir tempDewpointWater temp
2016-May-05 07:20N 51°47' E 003°20'0 0.0
2016-May-05 06:32N 51°47' E 003°20'0 0.0
2016-May-05 05:26N 51°47' E 003°20'0 0.1
2016-May-05 04:26N 51°47' E 003°20'0 0.0
2016-May-05 03:27N 51°47' E 003°20'0 0.0
2016-May-04 23:33N 51°47' E 003°20'0 0.0
2016-May-04 18:29N 51°47' E 003°20'0 0.0
2016-May-04 08:30N 51°47' E 003°20'0 0.0
2016-May-04 07:33N 51°47' E 003°20'0 0.0
2016-May-04 06:29N 51°47' E 003°20'0 0.0
2016-May-03 21:29N 51°47' E 003°20'2 2.1
2016-May-03 20:33N 51°46' E 003°17'10 9.2
2016-May-03 19:29N 51°37' E 003°22'910.3
2016-May-03 18:33N 51°29' E 003°30'9 8.6
2016-May-03 17:33N 51°25' E 003°43'7 6.5
2016-May-03 16:33N 51°20' E 003°49'4 3.8
2016-May-03 15:34N 51°16' E 003°50'7 6.6
2016-May-03 14:33N 51°10' E 003°47'2 2.1
2016-May-03 13:32N 51°08' E 003°46'0 0.0
2016-May-03 12:32N 51°08' E 003°46'0 0.0
2016-May-03 11:32N 51°08' E 003°46'0 0.0
2016-May-03 10:32N 51°08' E 003°46'0 0.0
2016-May-03 09:32N 51°08' E 003°46'0 0.0
2016-May-03 08:32N 51°08' E 003°46'0 0.0
2016-May-03 07:32N 51°08' E 003°46'0 0.0
2016-May-03 06:32N 51°08' E 003°46'0 0.0
2016-May-03 05:32N 51°08' E 003°46'0 0.0
2016-May-03 04:32N 51°08' E 003°46'0 0.0
2016-May-03 03:32N 51°08' E 003°46'0 0.0
2016-May-03 02:32N 51°08' E 003°46'0 0.0
2016-May-03 01:32N 51°08' E 003°46'0 0.0
2016-May-03 00:32N 51°08' E 003°46'0 0.0
2016-May-02 23:32N 51°08' E 003°46'0 0.0
2016-May-02 22:32N 51°08' E 003°46'0 0.0
2016-May-02 21:32N 51°08' E 003°46'0 0.0
2016-May-02 20:32N 51°08' E 003°46'0 0.0
2016-May-02 19:32N 51°08' E 003°46'0 0.0
2016-May-02 18:32N 51°08' E 003°46'0 0.0
2016-May-02 17:32N 51°08' E 003°46'0 0.0
2016-May-02 16:32N 51°08' E 003°46'0 0.0
2016-May-02 15:32N 51°08' E 003°46'0 0.0
2016-May-02 14:29N 51°08' E 003°46'0 0.0
2016-May-02 13:32N 51°08' E 003°46'0 0.0
2016-May-02 12:32N 51°08' E 003°46'0 0.0
2016-May-02 11:32N 51°08' E 003°46'0 0.0
2016-May-02 10:32N 51°08' E 003°46'0 0.0
2016-May-02 09:32N 51°08' E 003°46'0 0.0
2016-May-02 08:32N 51°08' E 003°46'0 0.0
2016-May-02 07:32N 51°08' E 003°46'0 0.0
2016-May-02 06:32N 51°08' E 003°46'0 0.0
2016-May-02 05:32N 51°08' E 003°46'0 0.0
2016-May-02 04:32N 51°08' E 003°46'0 0.0
2016-May-02 03:29N 51°08' E 003°46'0 0.0
2016-May-02 02:32N 51°08' E 003°46'0 0.0
2016-May-02 01:32N 51°08' E 003°46'0 0.0
2016-May-02 00:32N 51°08' E 003°46'0 0.0
2016-May-01 23:29N 51°08' E 003°46'0 0.0
2016-May-01 22:32N 51°08' E 003°46'0 0.0
2016-May-01 21:32N 51°08' E 003°46'0 0.0
2016-May-01 20:32N 51°08' E 003°46'0 0.0
2016-May-01 19:32N 51°08' E 003°46'0 0.0
2016-May-01 18:32N 51°08' E 003°46'0 0.0
2016-May-01 17:32N 51°08' E 003°46'0 0.0
2016-May-01 16:33N 51°08' E 003°46'2 1.8
2016-May-01 15:34N 51°09' E 003°47'8 8.5
2016-May-01 14:33N 51°18' E 003°50'3 2.7
2016-May-01 13:33N 51°20' E 003°49'8 8.0
2016-May-01 12:33N 51°25' E 003°39'8 8.4
2016-May-01 11:33N 51°30' E 003°28'158 8.3
2016-Apr-30 16:32N 53°59' E 004°54'1010.3
2016-Apr-30 15:33N 54°09' E 005°00'1010.0
2016-Apr-30 14:32N 54°18' E 005°06'256 7.5
2016-Apr-29 04:26N 58°34' E 004°47'1011.5
2016-Apr-29 03:32N 58°44' E 004°41'1111.2
2016-Apr-29 02:33N 58°54' E 004°36'  
Track history (hours):
 
Tides and Currents Weather Stations Pressure Air Temp Water Temp Dewpoint Dewpoint Depression Visibility Wind Speed Wind Dir Waves Ship Positions

Wilson Clyde

Last reported at 2016-May-05 07:20 UTC. Time now 2016-May-05 12:19 UTC.
Position N 51°47' E 003°20'.

Length 100 m; draft 3.8 m.

Type: Cargo ship. MMSI: 314187000.

Date/timePositionNaut miles runAvg speedWind from/ knotsBaromVisibWave heightAir tempDewpointWater temp
2016-May-05 07:20N 51°47' E 003°20'0 0.0
2016-May-05 06:32N 51°47' E 003°20'0 0.0
2016-May-05 05:26N 51°47' E 003°20'0 0.1
2016-May-05 04:26N 51°47' E 003°20'0 0.0
2016-May-05 03:27N 51°47' E 003°20'0 0.0
2016-May-04 23:33N 51°47' E 003°20'0 0.0
2016-May-04 18:29N 51°47' E 003°20'0 0.0
2016-May-04 08:30N 51°47' E 003°20'0 0.0
2016-May-04 07:33N 51°47' E 003°20'0 0.0
2016-May-04 06:29N 51°47' E 003°20'0 0.0
2016-May-03 21:29N 51°47' E 003°20'2 2.1
2016-May-03 20:33N 51°46' E 003°17'10 9.2
2016-May-03 19:29N 51°37' E 003°22'910.3
2016-May-03 18:33N 51°29' E 003°30'9 8.6
2016-May-03 17:33N 51°25' E 003°43'7 6.5
2016-May-03 16:33N 51°20' E 003°49'4 3.8
2016-May-03 15:34N 51°16' E 003°50'7 6.6
2016-May-03 14:33N 51°10' E 003°47'2 2.1
2016-May-03 13:32N 51°08' E 003°46'0 0.0
2016-May-03 12:32N 51°08' E 003°46'0 0.0
2016-May-03 11:32N 51°08' E 003°46'0 0.0
2016-May-03 10:32N 51°08' E 003°46'0 0.0
2016-May-03 09:32N 51°08' E 003°46'0 0.0
2016-May-03 08:32N 51°08' E 003°46'0 0.0
2016-May-03 07:32N 51°08' E 003°46'0 0.0
2016-May-03 06:32N 51°08' E 003°46'0 0.0
2016-May-03 05:32N 51°08' E 003°46'0 0.0
2016-May-03 04:32N 51°08' E 003°46'0 0.0
2016-May-03 03:32N 51°08' E 003°46'0 0.0
2016-May-03 02:32N 51°08' E 003°46'0 0.0
2016-May-03 01:32N 51°08' E 003°46'0 0.0
2016-May-03 00:32N 51°08' E 003°46'0 0.0
2016-May-02 23:32N 51°08' E 003°46'0 0.0
2016-May-02 22:32N 51°08' E 003°46'0 0.0
2016-May-02 21:32N 51°08' E 003°46'0 0.0
2016-May-02 20:32N 51°08' E 003°46'0 0.0
2016-May-02 19:32N 51°08' E 003°46'0 0.0
2016-May-02 18:32N 51°08' E 003°46'0 0.0
2016-May-02 17:32N 51°08' E 003°46'0 0.0
2016-May-02 16:32N 51°08' E 003°46'0 0.0
2016-May-02 15:32N 51°08' E 003°46'0 0.0
2016-May-02 14:29N 51°08' E 003°46'0 0.0
2016-May-02 13:32N 51°08' E 003°46'0 0.0
2016-May-02 12:32N 51°08' E 003°46'0 0.0
2016-May-02 11:32N 51°08' E 003°46'0 0.0
2016-May-02 10:32N 51°08' E 003°46'0 0.0
2016-May-02 09:32N 51°08' E 003°46'0 0.0
2016-May-02 08:32N 51°08' E 003°46'0 0.0
2016-May-02 07:32N 51°08' E 003°46'0 0.0
2016-May-02 06:32N 51°08' E 003°46'0 0.0
2016-May-02 05:32N 51°08' E 003°46'0 0.0
2016-May-02 04:32N 51°08' E 003°46'0 0.0
2016-May-02 03:29N 51°08' E 003°46'0 0.0
2016-May-02 02:32N 51°08' E 003°46'0 0.0
2016-May-02 01:32N 51°08' E 003°46'0 0.0
2016-May-02 00:32N 51°08' E 003°46'0 0.0
2016-May-01 23:29N 51°08' E 003°46'0 0.0
2016-May-01 22:32N 51°08' E 003°46'0 0.0
2016-May-01 21:32N 51°08' E 003°46'0 0.0
2016-May-01 20:32N 51°08' E 003°46'0 0.0
2016-May-01 19:32N 51°08' E 003°46'0 0.0
2016-May-01 18:32N 51°08' E 003°46'0 0.0
2016-May-01 17:32N 51°08' E 003°46'0 0.0
2016-May-01 16:33N 51°08' E 003°46'2 1.8
2016-May-01 15:34N 51°09' E 003°47'8 8.5
2016-May-01 14:33N 51°18' E 003°50'3 2.7
2016-May-01 13:33N 51°20' E 003°49'8 8.0
2016-May-01 12:33N 51°25' E 003°39'8 8.4
2016-May-01 11:33N 51°30' E 003°28'158 8.3
2016-Apr-30 16:32N 53°59' E 004°54'1010.3
2016-Apr-30 15:33N 54°09' E 005°00'1010.0
2016-Apr-30 14:32N 54°18' E 005°06'256 7.5
2016-Apr-29 04:26N 58°34' E 004°47'1011.5
2016-Apr-29 03:32N 58°44' E 004°41'1111.2
2016-Apr-29 02:33N 58°54' E 004°36'  

Dump ship's entire track history